Time;durP1;ratioP1;P1;durP2;ratioP2;P2;SDS_P1;SDS_P2;PMS_P1;PMS_P2;Temp;Humidity;BMP_temperature;BMP_pressure;BME280_temperature;BME280_humidity;BME280_pressure;Samples;Min_cycle;Max_cycle;Signal;HPM_P1;HPM_P2
2021/12/15 00:02:13;;;;;;;57.30;31.07;;;8.60;99.90;;;;;;5035067;28;20632;-57
2021/12/15 00:04:42;;;;;;;54.63;30.77;;;8.60;99.90;;;;;;5036227;28;20253;-58
2021/12/15 00:07:10;;;;;;;56.70;30.37;;;8.60;1.00;;;;;;5037248;28;20243;-58
2021/12/15 00:09:39;;;;;;;56.43;30.57;;;8.60;1.00;;;;;;5037547;28;20917;-57
2021/12/15 00:12:06;;;;;;;56.70;31.33;;;8.60;1.00;;;;;;5038311;28;20194;-57
2021/12/15 00:14:33;;;;;;;59.60;33.47;;;8.60;1.00;;;;;;5044265;28;20199;-58
2021/12/15 00:17:01;;;;;;;52.57;31.70;;;8.60;99.90;;;;;;5028254;28;20262;-59
2021/12/15 00:19:28;;;;;;;54.17;30.23;;;8.60;1.00;;;;;;5042607;28;20228;-58
2021/12/15 00:21:57;;;;;;;57.47;31.63;;;8.60;1.00;;;;;;5041516;28;20293;-59
2021/12/15 00:24:25;;;;;;;53.93;31.57;;;8.70;1.00;;;;;;5043594;28;20200;-58
2021/12/15 00:26:54;;;;;;;52.77;30.43;;;8.70;1.00;;;;;;5036903;28;20257;-58
2021/12/15 00:29:23;;;;;;;58.27;32.17;;;8.70;1.00;;;;;;5022120;28;20196;-57
2021/12/15 00:31:51;;;;;;;52.03;29.90;;;8.70;99.90;;;;;;5042835;28;20231;-57
2021/12/15 00:34:19;;;;;;;53.83;30.47;;;8.70;99.90;;;;;;5040557;28;20219;-58
2021/12/15 00:36:47;;;;;;;55.63;31.30;;;8.70;99.90;;;;;;5022763;28;20266;-57
2021/12/15 00:39:18;;;;;;;56.47;31.67;;;8.70;99.90;;;;;;5021827;28;20244;-57
2021/12/15 00:41:46;;;;;;;55.70;31.20;;;8.70;99.90;;;;;;5037685;28;20203;-58
2021/12/15 00:44:14;;;;;;;56.43;31.53;;;8.70;99.90;;;;;;5039622;28;20219;-59
2021/12/15 00:46:42;;;;;;;55.03;30.43;;;8.70;99.90;;;;;;5040765;28;20273;-56
2021/12/15 00:49:10;;;;;;;53.83;31.27;;;8.60;99.90;;;;;;5042203;28;20183;-58
2021/12/15 00:51:40;;;;;;;55.27;30.70;;;8.60;99.90;;;;;;5039936;28;20195;-57
2021/12/15 00:54:08;;;;;;;56.40;30.70;;;8.60;99.90;;;;;;5023096;28;20246;-59
2021/12/15 00:56:36;;;;;;;55.30;30.37;;;8.60;99.90;;;;;;5027053;28;20192;-57
2021/12/15 00:59:05;;;;;;;51.93;29.63;;;8.60;99.90;;;;;;5022203;28;20287;-58
2021/12/15 01:01:33;;;;;;;58.50;32.63;;;8.60;99.90;;;;;;5040762;28;20207;-57
2021/12/15 01:04:02;;;;;;;62.13;33.60;;;8.50;99.90;;;;;;5041132;28;20315;-58
2021/12/15 01:06:31;;;;;;;60.87;31.70;;;8.50;99.90;;;;;;5040263;28;20208;-57
2021/12/15 01:09:05;;;;;;;63.27;32.77;;;8.50;1.00;;;;;;5004369;28;20226;-58
2021/12/15 01:19:54;;;;;;;62.90;34.40;;;8.50;1.00;;;;;;5039928;28;20655;-57
2021/12/15 01:22:30;;;;;;;58.73;33.30;;;8.50;1.00;;;;;;5039990;28;20203;-57
2021/12/15 01:25:14;;;;;;;59.83;31.43;;;8.40;1.00;;;;;;5036918;28;20563;-58
2021/12/15 01:27:42;;;;;;;58.77;31.83;;;8.40;1.00;;;;;;5040165;28;20211;-58
2021/12/15 01:30:13;;;;;;;65.77;33.23;;;8.40;1.00;;;;;;5035163;28;20196;-58
2021/12/15 01:32:40;;;;;;;60.83;31.30;;;8.40;1.00;;;;;;5018165;28;20201;-57
2021/12/15 01:35:09;;;;;;;61.27;33.03;;;8.40;1.00;;;;;;5041116;28;20274;-57
2021/12/15 01:37:36;;;;;;;60.70;31.80;;;8.40;1.00;;;;;;5039775;28;20200;-58
2021/12/15 01:40:05;;;;;;;57.43;32.73;;;8.40;1.00;;;;;;5039946;28;20235;-59
2021/12/15 01:42:34;;;;;;;60.23;32.37;;;8.40;1.00;;;;;;5020969;28;20702;-59
2021/12/15 01:48:02;;;;;;;56.93;32.47;;;8.30;1.00;;;;;;5039006;28;20270;-59
2021/12/15 01:50:29;;;;;;;58.97;33.87;;;8.30;1.00;;;;;;5040297;28;20646;-58
2021/12/15 01:52:56;;;;;;;55.53;33.17;;;8.20;1.00;;;;;;5023041;28;20223;-57
2021/12/15 01:55:24;;;;;;;55.80;30.53;;;8.10;1.00;;;;;;5021936;28;20651;-58
2021/12/15 01:57:52;;;;;;;54.33;31.83;;;8.10;1.00;;;;;;5040831;28;20188;-57
2021/12/15 02:00:35;;;;;;;62.40;31.20;;;8.00;1.00;;;;;;5037392;28;20222;-58
2021/12/15 02:03:03;;;;;;;57.53;30.97;;;8.00;1.00;;;;;;5038185;28;20203;-57
2021/12/15 02:05:31;;;;;;;56.00;30.50;;;7.90;1.00;;;;;;5039345;28;21672;-57
2021/12/15 02:08:00;;;;;;;52.20;30.30;;;7.90;29.80;;;;;;5038910;28;20230;-57
2021/12/15 02:10:31;;;;;;;54.97;31.10;;;7.90;1.00;;;;;;5039385;28;20207;-57
2021/12/15 02:13:00;;;;;;;56.97;29.63;;;7.80;91.40;;;;;;5038804;28;20188;-57
2021/12/15 02:15:31;;;;;;;53.17;30.63;;;7.80;99.90;;;;;;5022375;28;20582;-57
2021/12/15 02:18:00;;;;;;;50.60;29.67;;;7.80;99.90;;;;;;5038426;28;20666;-57
2021/12/15 02:20:55;;;;;;;55.03;29.43;;;7.80;99.90;;;;;;5036799;28;20195;-58
2021/12/15 02:23:31;;;;;;;50.47;28.87;;;7.80;99.90;;;;;;5020837;28;20256;-57
2021/12/15 02:26:00;;;;;;;55.90;31.10;;;7.80;99.90;;;;;;5025976;28;20238;-57
2021/12/15 02:28:27;;;;;;;59.43;32.23;;;7.80;99.90;;;;;;5026467;28;20208;-57
2021/12/15 02:30:57;;;;;;;57.13;29.83;;;7.80;99.90;;;;;;5035675;28;20339;-57
2021/12/15 02:39:02;;;;;;;56.77;28.60;;;7.70;99.90;;;;;;5027007;28;20558;-56
2021/12/15 02:41:31;;;;;;;49.30;28.30;;;7.80;99.90;;;;;;5024303;28;20778;-57
2021/12/15 02:44:06;;;;;;;58.17;28.23;;;7.80;99.90;;;;;;5022693;28;20227;-57
2021/12/15 02:46:35;;;;;;;53.37;27.67;;;7.80;99.90;;;;;;5026399;28;20203;-56
2021/12/15 02:49:05;;;;;;;52.90;27.50;;;7.80;96.10;;;;;;5022279;28;20254;-57
2021/12/15 02:51:33;;;;;;;52.03;28.47;;;7.80;23.60;;;;;;5024473;28;20200;-57
2021/12/15 02:54:02;;;;;;;47.60;27.77;;;7.80;1.00;;;;;;5028402;28;20184;-57
2021/12/15 02:56:29;;;;;;;48.77;25.87;;;7.80;1.00;;;;;;5036445;28;20206;-57
2021/12/15 02:59:01;;;;;;;44.73;26.33;;;7.80;1.00;;;;;;5038913;28;20598;-57
2021/12/15 03:01:38;;;;;;;48.50;26.63;;;7.70;1.00;;;;;;5038075;28;20270;-56
2021/12/15 03:07:31;;;;;;;44.33;24.63;;;7.80;1.00;;;;;;5038410;28;20231;-57
2021/12/15 03:17:56;;;;;;;45.10;25.20;;;7.80;1.00;;;;;;5040390;28;20214;-57
2021/12/15 03:20:25;;;;;;;47.47;25.10;;;7.80;99.90;;;;;;5036595;28;20200;-57
2021/12/15 03:22:52;;;;;;;41.73;24.27;;;7.80;99.90;;;;;;5039432;28;20269;-57
2021/12/15 03:25:19;;;;;;;40.60;22.87;;;7.80;1.00;;;;;;5038887;28;20282;-57
2021/12/15 03:33:35;;;;;;;40.30;21.47;;;8.00;99.90;;;;;;5040679;28;20184;-58
2021/12/15 03:36:11;;;;;;;38.63;22.50;;;7.90;1.00;;;;;;5038850;28;20196;-58
2021/12/15 03:38:39;;;;;;;37.40;21.77;;;7.90;99.90;;;;;;5037714;28;20199;-57
2021/12/15 03:41:08;;;;;;;37.60;22.00;;;7.90;1.00;;;;;;5023703;28;20228;-58
2021/12/15 03:43:36;;;;;;;38.13;20.30;;;7.70;99.90;;;;;;5022578;28;20197;-59
2021/12/15 03:46:09;;;;;;;32.93;21.80;;;7.60;99.90;;;;;;5021682;28;20715;-58
2021/12/15 03:48:39;;;;;;;36.50;21.13;;;7.60;1.00;;;;;;5030739;28;20208;-59
2021/12/15 03:51:12;;;;;;;36.07;21.20;;;7.50;99.90;;;;;;5041285;28;20202;-58
2021/12/15 03:53:42;;;;;;;38.27;21.33;;;7.50;1.00;;;;;;5039974;28;20196;-59
2021/12/15 03:56:12;;;;;;;35.23;22.13;;;7.40;84.00;;;;;;5024247;28;20268;-57
2021/12/15 03:58:39;;;;;;;36.07;22.03;;;7.50;1.00;;;;;;5025694;28;20232;-59
2021/12/15 04:01:11;;;;;;;33.13;20.20;;;7.40;1.00;;;;;;5041439;28;20654;-57
2021/12/15 04:03:44;;;;;;;41.90;21.07;;;7.40;1.00;;;;;;5038230;28;20258;-59
2021/12/15 04:06:16;;;;;;;38.93;22.33;;;7.30;1.00;;;;;;5039802;28;20223;-58
2021/12/15 04:08:43;;;;;;;37.80;21.73;;;7.30;99.90;;;;;;5022304;28;20207;-58
2021/12/15 04:11:13;;;;;;;43.00;27.93;;;7.30;1.00;;;;;;5042494;28;20249;-58
2021/12/15 04:13:42;;;;;;;37.87;22.00;;;7.20;1.00;;;;;;5041294;28;20254;-58
2021/12/15 04:16:15;;;;;;;39.33;21.93;;;7.20;1.00;;;;;;5008115;28;20291;-57
2021/12/15 04:18:43;;;;;;;44.77;24.07;;;7.20;1.00;;;;;;5039651;28;20231;-58
2021/12/15 04:21:10;;;;;;;35.43;20.97;;;7.30;73.20;;;;;;5023948;28;20247;-57
2021/12/15 04:23:37;;;;;;;41.30;23.77;;;7.40;99.90;;;;;;5029814;28;20256;-58
2021/12/15 04:26:04;;;;;;;41.23;23.73;;;7.50;99.90;;;;;;5042232;28;20196;-57
2021/12/15 04:28:34;;;;;;;37.10;22.73;;;7.60;99.90;;;;;;5040175;28;20223;-57
2021/12/15 04:31:07;;;;;;;37.40;20.93;;;7.70;99.90;;;;;;5039600;28;20254;-59
2021/12/15 04:33:41;;;;;;;39.03;22.57;;;7.80;64.90;;;;;;5039065;28;20566;-57
2021/12/15 04:36:10;;;;;;;45.60;22.00;;;7.80;1.00;;;;;;5029017;28;21102;-57
2021/12/15 04:38:39;;;;;;;38.83;22.13;;;7.90;99.90;;;;;;5039927;28;20237;-58
2021/12/15 04:41:10;;;;;;;35.80;21.57;;;8.00;1.00;;;;;;5039982;28;20239;-58
2021/12/15 04:43:59;;;;;;;34.47;21.90;;;8.00;1.00;;;;;;5040502;28;20216;-57
2021/12/15 04:46:30;;;;;;;40.57;22.33;;;8.10;1.00;;;;;;5041585;28;20230;-57
2021/12/15 04:48:58;;;;;;;32.93;21.40;;;8.10;99.90;;;;;;5041360;28;20204;-57
2021/12/15 04:51:25;;;;;;;33.27;20.77;;;8.10;1.00;;;;;;5023777;28;20246;-58
2021/12/15 04:53:53;;;;;;;34.73;20.43;;;8.20;1.00;;;;;;5042499;28;20204;-57
2021/12/15 04:56:21;;;;;;;31.40;19.77;;;8.20;1.00;;;;;;5041396;28;20821;-57
2021/12/15 04:58:48;;;;;;;32.73;19.70;;;8.30;99.90;;;;;;5021960;28;20196;-56
2021/12/15 05:01:17;;;;;;;30.13;20.20;;;8.40;27.40;;;;;;5039685;28;20295;-56
2021/12/15 05:03:45;;;;;;;31.37;19.50;;;8.40;1.00;;;;;;5041539;28;20309;-56
2021/12/15 05:06:12;;;;;;;29.27;18.43;;;8.40;1.00;;;;;;5023274;28;20258;-57
2021/12/15 05:08:40;;;;;;;32.63;18.53;;;8.50;99.90;;;;;;5039149;28;20203;-56
2021/12/15 05:11:10;;;;;;;29.73;19.83;;;8.50;99.90;;;;;;5041180;28;20198;-57
2021/12/15 05:13:38;;;;;;;27.47;17.60;;;8.50;99.90;;;;;;5040650;28;20195;-57
2021/12/15 05:16:06;;;;;;;29.97;17.70;;;8.50;99.90;;;;;;5036958;28;20199;-59
2021/12/15 05:18:34;;;;;;;26.97;17.40;;;8.50;99.90;;;;;;5043202;28;20210;-58
2021/12/15 05:21:05;;;;;;;27.40;18.20;;;8.60;99.90;;;;;;5040960;28;20996;-57
2021/12/15 05:23:36;;;;;;;28.13;18.03;;;8.60;20.10;;;;;;5022411;28;20197;-57
2021/12/15 05:26:03;;;;;;;26.53;18.10;;;8.60;1.00;;;;;;5040777;28;20224;-57
2021/12/15 05:28:31;;;;;;;26.50;17.77;;;8.60;1.00;;;;;;5042436;28;20204;-56
2021/12/15 05:30:58;;;;;;;26.40;18.43;;;8.70;1.00;;;;;;5040960;28;20202;-57
2021/12/15 05:33:25;;;;;;;25.17;17.60;;;8.70;1.00;;;;;;5041369;28;20228;-57
2021/12/15 05:35:53;;;;;;;28.20;18.47;;;8.70;1.00;;;;;;5040628;28;20682;-57
2021/12/15 05:38:21;;;;;;;24.13;17.83;;;8.70;1.00;;;;;;5040385;28;20196;-58
2021/12/15 05:40:49;;;;;;;27.03;18.40;;;8.70;1.00;;;;;;5040376;28;20328;-57
2021/12/15 05:43:16;;;;;;;28.47;18.47;;;8.70;1.00;;;;;;5038934;28;20249;-57
2021/12/15 05:45:44;;;;;;;25.47;17.37;;;8.70;1.00;;;;;;5025330;28;20689;-57
2021/12/15 05:48:13;;;;;;;26.90;18.03;;;8.70;1.00;;;;;;5039280;28;20298;-58
2021/12/15 05:50:42;;;;;;;28.97;17.77;;;8.70;1.00;;;;;;5041966;28;20207;-57
2021/12/15 05:53:09;;;;;;;25.10;17.47;;;8.70;1.00;;;;;;5029014;28;20196;-57
2021/12/15 05:55:37;;;;;;;24.93;18.27;;;8.70;1.00;;;;;;5005608;28;20667;-56
2021/12/15 05:58:04;;;;;;;27.27;19.20;;;8.70;1.00;;;;;;5041258;28;20220;-58
2021/12/15 06:00:34;;;;;;;25.20;18.20;;;8.70;1.00;;;;;;5039288;28;20314;-58
2021/12/15 06:03:02;;;;;;;28.93;18.37;;;8.70;52.80;;;;;;5040524;28;20517;-56
2021/12/15 06:05:31;;;;;;;25.30;18.27;;;8.70;99.90;;;;;;5040615;28;20204;-58
2021/12/15 06:07:58;;;;;;;26.97;18.73;;;8.70;99.90;;;;;;5025736;28;20738;-58
2021/12/15 06:10:28;;;;;;;27.90;19.20;;;8.60;99.90;;;;;;5038272;28;20201;-58
2021/12/15 06:12:56;;;;;;;29.00;19.73;;;8.70;1.00;;;;;;5039301;28;20586;-58
2021/12/15 06:15:25;;;;;;;27.73;19.70;;;8.70;1.00;;;;;;5035872;28;20234;-58
2021/12/15 06:17:57;;;;;;;32.63;21.53;;;8.70;1.00;;;;;;5036734;28;20200;-57
2021/12/15 06:20:25;;;;;;;28.73;20.27;;;8.70;1.00;;;;;;5039602;28;20303;-57
2021/12/15 06:22:54;;;;;;;27.73;20.33;;;8.70;99.90;;;;;;5013950;28;20203;-56
2021/12/15 06:25:22;;;;;;;31.30;20.60;;;8.70;99.90;;;;;;5037351;28;21319;-57
2021/12/15 06:27:49;;;;;;;31.60;21.03;;;8.70;99.90;;;;;;5040339;28;20686;-57
2021/12/15 06:30:16;;;;;;;30.50;20.67;;;8.70;99.90;;;;;;5036710;28;20226;-58
2021/12/15 06:32:43;;;;;;;33.20;21.73;;;8.70;1.00;;;;;;5026592;28;20614;-59
2021/12/15 06:35:11;;;;;;;30.57;19.80;;;8.70;1.00;;;;;;5038751;28;20215;-57
2021/12/15 06:37:39;;;;;;;28.27;20.13;;;8.70;1.00;;;;;;5037915;28;20605;-59
2021/12/15 06:40:07;;;;;;;27.70;19.07;;;8.70;1.00;;;;;;5037970;28;20338;-57
2021/12/15 06:42:40;;;;;;;29.83;20.07;;;8.70;1.00;;;;;;5036198;28;20234;-58
2021/12/15 06:45:12;;;;;;;31.13;20.83;;;8.70;1.00;;;;;;5038802;28;20620;-58
2021/12/15 06:58:41;;;;;;;26.60;19.87;;;8.70;1.00;;;;;;5038618;28;20692;-56
2021/12/15 07:01:09;;;;;;;25.90;18.07;;;8.70;1.00;;;;;;5035734;28;20559;-57
2021/12/15 07:03:36;;;;;;;24.13;19.20;;;8.70;1.00;;;;;;5026208;28;20314;-56
2021/12/15 07:06:03;;;;;;;28.60;19.07;;;8.70;99.90;;;;;;5038949;28;20843;-57
2021/12/15 07:08:30;;;;;;;25.43;18.57;;;8.70;1.00;;;;;;5039210;28;20295;-56
2021/12/15 07:11:01;;;;;;;25.50;19.53;;;8.70;1.00;;;;;;5036207;28;20249;-58
2021/12/15 07:13:28;;;;;;;21.57;17.73;;;8.70;1.00;;;;;;5005718;28;20283;-58
2021/12/15 07:16:01;;;;;;;22.43;17.30;;;8.70;1.00;;;;;;5026924;28;20208;-58
2021/12/15 07:18:40;;;;;;;24.93;17.57;;;8.70;33.50;;;;;;5018418;28;20191;-58
2021/12/15 07:21:15;;;;;;;27.00;20.10;;;8.70;80.10;;;;;;5040797;28;20245;-58
2021/12/15 07:23:43;;;;;;;27.47;19.77;;;8.70;99.90;;;;;;5024077;28;20688;-57
2021/12/15 07:26:10;;;;;;;27.93;18.43;;;8.70;99.90;;;;;;5038361;28;20766;-58
2021/12/15 07:28:37;;;;;;;26.37;19.47;;;8.70;99.90;;;;;;5042235;28;20277;-57
2021/12/15 07:31:05;;;;;;;25.73;18.00;;;8.70;1.00;;;;;;5040084;28;20733;-59
2021/12/15 07:33:32;;;;;;;29.43;20.30;;;8.70;1.00;;;;;;5022544;28;20203;-58
2021/12/15 07:36:01;;;;;;;27.43;18.93;;;8.70;1.00;;;;;;5041864;28;20257;-57
2021/12/15 07:38:28;;;;;;;26.53;19.87;;;8.70;1.00;;;;;;5040600;28;20439;-57
2021/12/15 07:40:55;;;;;;;28.43;19.33;;;8.70;1.00;;;;;;5038682;28;20223;-58
2021/12/15 07:43:25;;;;;;;27.70;19.40;;;8.70;1.00;;;;;;5040009;28;20246;-58
2021/12/15 07:46:02;;;;;;;27.67;18.80;;;8.70;1.00;;;;;;5039834;28;20247;-57
2021/12/15 07:48:34;;;;;;;28.93;19.83;;;8.80;1.00;;;;;;5038250;28;20847;-56
2021/12/15 07:51:04;;;;;;;27.87;20.13;;;8.70;1.00;;;;;;5041056;28;20533;-57
2021/12/15 07:53:32;;;;;;;31.50;21.23;;;8.70;1.00;;;;;;5041224;28;20195;-57
2021/12/15 07:55:59;;;;;;;33.93;20.97;;;8.70;1.00;;;;;;5023169;28;20231;-57
2021/12/15 07:58:28;;;;;;;29.30;19.50;;;8.70;1.00;;;;;;5042208;28;20199;-57
2021/12/15 08:00:59;;;;;;;30.00;20.43;;;8.80;1.00;;;;;;5040379;28;20200;-57
2021/12/15 08:03:28;;;;;;;33.70;21.60;;;8.70;1.00;;;;;;5039684;28;20401;-57
2021/12/15 08:05:55;;;;;;;33.30;21.43;;;8.70;1.00;;;;;;5040017;28;20257;-57
2021/12/15 08:08:22;;;;;;;29.97;20.77;;;8.80;1.00;;;;;;5041879;28;20215;-57
2021/12/15 08:10:50;;;;;;;31.53;21.83;;;8.80;1.00;;;;;;5040133;28;20207;-58
2021/12/15 08:13:17;;;;;;;29.10;20.77;;;8.80;1.00;;;;;;5041195;28;20204;-58
2021/12/15 08:15:44;;;;;;;32.80;21.53;;;8.80;99.90;;;;;;5040035;28;20630;-60
2021/12/15 08:18:11;;;;;;;27.77;20.60;;;8.80;99.90;;;;;;5029056;28;20644;-58
2021/12/15 08:20:39;;;;;;;27.50;20.27;;;8.90;99.90;;;;;;5039419;28;20200;-58
2021/12/15 08:23:06;;;;;;;30.33;23.13;;;8.90;99.90;;;;;;5039985;28;20200;-58
2021/12/15 08:25:35;;;;;;;25.10;18.50;;;8.90;1.00;;;;;;5043262;28;20663;-58
2021/12/15 08:28:03;;;;;;;28.90;21.10;;;8.90;1.00;;;;;;5039716;28;20212;-58
2021/12/15 08:30:32;;;;;;;27.10;20.40;;;8.90;1.00;;;;;;5039308;28;20271;-59
2021/12/15 08:33:03;;;;;;;28.70;20.20;;;8.90;1.00;;;;;;5042775;28;20195;-58
2021/12/15 08:35:39;;;;;;;27.50;19.07;;;8.90;99.90;;;;;;5041524;28;20694;-58
2021/12/15 08:38:09;;;;;;;31.00;19.60;;;8.90;99.90;;;;;;5040880;28;20199;-59
2021/12/15 08:40:36;;;;;;;26.73;19.00;;;9.00;99.90;;;;;;5030341;28;20714;-59
2021/12/15 08:43:07;;;;;;;24.77;18.77;;;9.00;99.90;;;;;;5036883;28;20641;-59
2021/12/15 08:45:39;;;;;;;26.93;19.57;;;9.00;91.40;;;;;;5039825;28;20599;-59
2021/12/15 08:48:07;;;;;;;28.00;18.67;;;9.00;1.00;;;;;;5030320;28;20224;-58
2021/12/15 08:50:37;;;;;;;25.20;17.27;;;9.00;1.00;;;;;;5021716;28;20552;-58
2021/12/15 08:53:09;;;;;;;25.87;17.87;;;9.10;1.00;;;;;;5039584;28;20187;-58
2021/12/15 08:55:37;;;;;;;27.53;18.70;;;9.00;1.00;;;;;;5037781;28;20243;-57
2021/12/15 08:58:07;;;;;;;26.43;18.40;;;9.10;1.00;;;;;;5036372;28;20196;-58
2021/12/15 09:00:34;;;;;;;24.23;17.57;;;9.10;1.00;;;;;;5020007;28;20196;-58
2021/12/15 09:03:01;;;;;;;26.50;18.13;;;9.10;70.70;;;;;;5011451;28;20200;-59
2021/12/15 09:05:29;;;;;;;25.40;17.13;;;9.10;99.90;;;;;;5021024;28;20299;-58
2021/12/15 09:07:59;;;;;;;27.03;16.57;;;9.10;99.90;;;;;;5035709;28;20203;-59
2021/12/15 09:10:29;;;;;;;23.10;16.17;;;9.20;99.90;;;;;;5031883;28;20628;-58
2021/12/15 09:12:58;;;;;;;24.70;18.03;;;9.30;1.00;;;;;;5032239;28;20595;-58
2021/12/15 09:15:25;;;;;;;24.33;17.10;;;9.30;1.00;;;;;;5012079;28;20199;-60
2021/12/15 09:17:52;;;;;;;21.63;16.33;;;9.30;1.00;;;;;;5010898;28;20318;-59
2021/12/15 09:20:23;;;;;;;20.83;15.30;;;9.40;99.90;;;;;;5032165;28;20212;-59
2021/12/15 09:22:50;;;;;;;21.93;15.47;;;9.30;99.90;;;;;;5037835;28;20647;-57
2021/12/15 09:25:18;;;;;;;19.97;14.17;;;9.30;99.90;;;;;;5037402;28;20187;-58
2021/12/15 09:27:46;;;;;;;22.80;15.20;;;9.30;93.10;;;;;;5037729;28;20286;-58
2021/12/15 09:30:18;;;;;;;22.00;15.27;;;9.30;99.90;;;;;;5035303;28;20216;-60
2021/12/15 09:32:46;;;;;;;20.60;14.50;;;9.30;99.90;;;;;;5032879;28;20196;-59
2021/12/15 09:35:16;;;;;;;21.80;15.67;;;9.30;99.90;;;;;;5035685;28;20196;-60
2021/12/15 09:37:45;;;;;;;21.13;14.23;;;9.30;99.90;;;;;;5037173;28;20196;-59
2021/12/15 09:40:14;;;;;;;19.40;14.03;;;9.30;99.90;;;;;;5037855;28;20239;-58
2021/12/15 09:42:41;;;;;;;19.40;13.30;;;9.30;99.90;;;;;;5036874;28;20231;-58
2021/12/15 09:45:25;;;;;;;17.63;13.30;;;9.30;94.30;;;;;;5038306;28;20279;-60
2021/12/15 10:02:03;;;;;;;19.17;12.77;;;9.40;61.70;;;;;;5035554;28;20180;-58
2021/12/15 10:18:47;;;;;;;18.47;13.43;;;9.60;1.00;;;;;;5020014;28;20211;-58
2021/12/15 10:21:29;;;;;;;16.40;12.23;;;9.60;99.90;;;;;;5039264;28;20210;-58
2021/12/15 10:23:57;;;;;;;15.00;11.77;;;9.60;99.90;;;;;;5027099;28;20195;-58
2021/12/15 10:26:24;;;;;;;15.20;11.97;;;9.60;99.90;;;;;;5032436;28;20225;-60
2021/12/15 10:28:53;;;;;;;15.13;12.23;;;9.60;99.90;;;;;;5036077;28;20273;-59
2021/12/15 10:31:27;;;;;;;17.20;11.37;;;9.60;99.90;;;;;;5040813;28;20206;-60
2021/12/15 10:34:03;;;;;;;16.77;12.63;;;9.70;99.90;;;;;;5017155;28;20257;-59
2021/12/15 10:36:33;;;;;;;14.17;11.13;;;9.70;28.90;;;;;;5028067;28;20567;-60
2021/12/15 10:39:10;;;;;;;17.07;12.60;;;9.70;1.00;;;;;;5035866;28;20253;-59
2021/12/15 10:41:43;;;;;;;17.63;12.00;;;9.70;1.00;;;;;;5038630;28;20195;-58
2021/12/15 10:44:17;;;;;;;15.23;11.80;;;9.70;1.00;;;;;;5015926;28;20200;-58
2021/12/15 10:46:49;;;;;;;15.03;12.33;;;9.70;1.00;;;;;;5026303;28;20200;-60
2021/12/15 10:49:29;;;;;;;15.10;12.13;;;9.70;1.00;;;;;;5038493;28;20204;-58
2021/12/15 10:52:01;;;;;;;15.43;12.13;;;9.70;1.00;;;;;;5037654;28;20254;-58
2021/12/15 10:54:49;;;;;;;14.03;12.20;;;9.70;1.00;;;;;;5038604;28;20242;-60
2021/12/15 10:57:34;;;;;;;14.53;11.33;;;9.70;1.00;;;;;;5019432;28;20211;-59
2021/12/15 11:00:07;;;;;;;16.37;12.00;;;9.70;1.00;;;;;;5004117;28;20200;-59
2021/12/15 11:02:37;;;;;;;16.83;12.67;;;9.70;1.00;;;;;;5038037;28;20219;-59
2021/12/15 11:05:15;;;;;;;15.73;11.93;;;9.80;1.00;;;;;;5023251;28;20245;-59
2021/12/15 11:07:54;;;;;;;16.60;12.73;;;9.80;1.00;;;;;;5037686;28;20589;-59
2021/12/15 11:10:36;;;;;;;15.73;13.03;;;9.80;1.00;;;;;;5031501;28;20209;-59
2021/12/15 11:13:06;;;;;;;18.23;13.80;;;9.80;1.00;;;;;;5033464;28;20192;-58
2021/12/15 11:15:45;;;;;;;16.67;12.97;;;9.90;1.00;;;;;;5037672;28;20215;-59
2021/12/15 11:18:22;;;;;;;17.87;13.93;;;9.90;99.90;;;;;;5036514;28;20200;-61
2021/12/15 11:20:54;;;;;;;19.57;14.93;;;9.80;1.00;;;;;;5021409;28;20283;-60
2021/12/15 11:23:26;;;;;;;18.03;14.27;;;9.90;1.00;;;;;;5005021;28;20369;-60
2021/12/15 11:25:58;;;;;;;18.87;14.53;;;9.90;1.00;;;;;;5035707;28;20206;-61
2021/12/15 11:28:28;;;;;;;17.23;14.00;;;9.90;1.00;;;;;;5017840;28;20261;-60
2021/12/15 11:30:58;;;;;;;18.80;13.63;;;9.90;99.90;;;;;;5020852;28;20655;-58
2021/12/15 11:33:30;;;;;;;20.63;15.07;;;9.90;99.90;;;;;;5020070;28;20200;-60
2021/12/15 11:36:09;;;;;;;19.50;14.13;;;10.00;99.90;;;;;;5038632;28;20242;-60
2021/12/15 11:38:49;;;;;;;16.97;13.83;;;10.00;99.90;;;;;;5021232;28;20199;-60
2021/12/15 11:41:19;;;;;;;16.87;14.30;;;10.00;99.90;;;;;;5032890;28;20487;-60
2021/12/15 11:43:55;;;;;;;20.83;15.30;;;10.00;99.90;;;;;;5023431;28;20218;-59
2021/12/15 11:46:36;;;;;;;18.73;14.93;;;10.00;99.90;;;;;;4992562;28;20598;-59
2021/12/15 11:49:13;;;;;;;18.37;15.13;;;10.00;99.90;;;;;;5037516;28;20203;-59
2021/12/15 11:52:01;;;;;;;19.17;15.23;;;10.00;99.90;;;;;;5037385;28;20233;-58
2021/12/15 11:54:30;;;;;;;17.00;14.07;;;10.10;99.90;;;;;;5027919;28;20225;-60
2021/12/15 11:57:22;;;;;;;18.73;15.53;;;10.10;99.90;;;;;;5036834;28;20196;-60
2021/12/15 11:59:53;;;;;;;17.33;14.77;;;10.20;1.00;;;;;;5040463;28;20191;-60
2021/12/15 12:02:22;;;;;;;16.97;14.30;;;10.20;1.00;;;;;;5038408;28;20227;-60
2021/12/15 12:04:57;;;;;;;16.40;14.67;;;10.20;1.00;;;;;;5039452;28;20219;-58
2021/12/15 12:07:31;;;;;;;18.60;15.77;;;10.20;1.00;;;;;;5012217;28;20655;-59
2021/12/15 12:10:21;;;;;;;17.33;14.63;;;10.20;1.00;;;;;;5026544;28;20211;-60
2021/12/15 12:12:56;;;;;;;17.73;14.57;;;10.20;1.00;;;;;;5037009;28;20291;-58
2021/12/15 12:15:27;;;;;;;18.20;15.53;;;10.20;1.00;;;;;;5041307;28;20206;-58
2021/12/15 12:17:57;;;;;;;18.87;14.80;;;10.20;1.00;;;;;;5022380;28;20257;-58
2021/12/15 12:20:34;;;;;;;17.53;15.27;;;10.20;1.00;;;;;;5043443;28;20610;-58
2021/12/15 12:23:05;;;;;;;18.87;14.60;;;10.20;1.00;;;;;;5042704;28;20199;-58
2021/12/15 12:25:39;;;;;;;21.87;15.70;;;10.20;1.00;;;;;;5040918;28;20728;-58
2021/12/15 12:28:09;;;;;;;19.77;15.53;;;10.20;1.00;;;;;;5025483;28;20192;-58
2021/12/15 12:30:41;;;;;;;19.17;15.40;;;10.20;1.00;;;;;;5029975;28;20730;-60
2021/12/15 12:33:10;;;;;;;19.63;15.63;;;10.10;1.00;;;;;;5041099;28;20258;-59
2021/12/15 12:35:44;;;;;;;20.60;15.47;;;10.20;1.00;;;;;;5041985;28;20200;-59
2021/12/15 12:38:33;;;;;;;18.50;15.43;;;10.20;1.00;;;;;;5022716;28;20270;-60
2021/12/15 12:41:03;;;;;;;18.73;15.43;;;10.20;1.00;;;;;;5038066;28;20582;-59
2021/12/15 12:43:31;;;;;;;18.93;15.53;;;10.20;1.00;;;;;;5007916;28;20299;-59
2021/12/15 12:46:09;;;;;;;18.57;15.83;;;10.20;1.00;;;;;;5039968;28;20903;-60
2021/12/15 13:00:38;;;;;;;25.10;16.97;;;10.10;1.00;;;;;;5042243;28;20261;-59
2021/12/15 13:03:19;;;;;;;24.83;19.70;;;10.10;1.00;;;;;;5038882;28;20283;-60
2021/12/15 13:05:51;;;;;;;26.67;20.23;;;10.00;25.80;;;;;;5026898;28;20195;-59
2021/12/15 13:08:36;;;;;;;25.47;20.57;;;10.00;89.80;;;;;;5042189;28;20692;-60
2021/12/15 13:11:17;;;;;;;28.23;20.73;;;10.00;85.40;;;;;;5040358;28;20212;-58
2021/12/15 13:14:09;;;;;;;25.00;19.40;;;10.00;99.90;;;;;;5036316;28;20187;-58
2021/12/15 13:16:55;;;;;;;29.73;21.43;;;10.00;99.90;;;;;;5020137;28;20683;-59
2021/12/15 13:19:27;;;;;;;31.53;22.23;;;10.00;99.90;;;;;;5039719;28;20195;-59
2021/12/15 13:30:51;;;;;;;38.60;24.53;;;10.00;99.90;;;;;;5016683;28;20710;-59
2021/12/15 13:33:28;;;;;;;34.17;24.03;;;9.90;99.90;;;;;;5047455;28;20205;-58
2021/12/15 13:36:29;;;;;;;36.40;24.27;;;9.90;99.90;;;;;;5031983;28;20260;-58
2021/12/15 13:39:07;;;;;;;34.47;24.30;;;10.00;99.90;;;;;;5031836;28;20286;-59
2021/12/15 13:41:44;;;;;;;37.10;26.10;;;10.00;99.90;;;;;;5042705;28;20191;-59
2021/12/15 13:44:29;;;;;;;37.97;25.63;;;10.00;99.90;;;;;;5049027;28;20547;-60
2021/12/15 13:47:07;;;;;;;39.33;26.10;;;10.00;1.00;;;;;;5045361;28;20200;-60
2021/12/15 13:49:59;;;;;;;39.50;26.43;;;9.90;1.00;;;;;;5044320;28;20219;-59
2021/12/15 13:52:36;;;;;;;37.33;26.60;;;10.00;1.00;;;;;;5027875;28;20206;-60
2021/12/15 13:55:15;;;;;;;41.50;28.70;;;9.90;1.00;;;;;;5015457;28;20655;-59
2021/12/15 13:57:51;;;;;;;40.80;27.53;;;10.00;1.00;;;;;;5042460;28;20199;-59
2021/12/15 14:00:35;;;;;;;39.10;27.73;;;9.90;1.00;;;;;;5048923;28;20726;-59
2021/12/15 14:03:03;;;;;;;40.13;27.57;;;10.00;1.00;;;;;;5049710;28;20297;-60
2021/12/15 14:05:38;;;;;;;40.63;27.17;;;9.90;1.00;;;;;;5030439;28;20211;-60
2021/12/15 14:08:12;;;;;;;40.33;27.30;;;10.00;1.00;;;;;;5029247;28;20207;-60
2021/12/15 14:10:44;;;;;;;39.07;27.13;;;10.00;99.90;;;;;;5044022;28;21882;-59
2021/12/15 14:13:12;;;;;;;38.33;27.07;;;9.90;99.90;;;;;;5040317;28;20199;-59
2021/12/15 14:15:41;;;;;;;38.73;27.27;;;9.90;1.00;;;;;;5043811;28;20223;-60
2021/12/15 14:18:12;;;;;;;39.73;26.77;;;9.90;1.00;;;;;;5033959;28;20191;-60
2021/12/15 14:20:45;;;;;;;38.10;27.53;;;9.90;99.90;;;;;;5046549;28;20690;-60
2021/12/15 14:23:17;;;;;;;36.50;26.33;;;9.90;99.90;;;;;;5029691;28;21312;-60
2021/12/15 14:25:45;;;;;;;38.77;27.10;;;9.90;99.90;;;;;;5029405;28;20245;-57
2021/12/15 14:28:19;;;;;;;35.53;25.27;;;9.90;99.90;;;;;;5028274;28;20211;-59
2021/12/15 14:30:51;;;;;;;38.97;26.40;;;9.90;99.90;;;;;;5050095;28;20222;-59
2021/12/15 14:33:28;;;;;;;38.20;27.23;;;9.90;99.90;;;;;;5046659;28;20199;-60
2021/12/15 14:35:59;;;;;;;37.17;25.57;;;9.80;1.00;;;;;;5044520;28;20734;-59